createdAt,value
2023-04-07T00:00:03.296Z,1018.3
2023-04-07T00:01:03.462Z,1018.2
2023-04-07T00:02:03.308Z,1018.3
2023-04-07T00:03:03.366Z,1018.2
2023-04-07T00:04:03.734Z,1018.2
2023-04-07T00:05:03.482Z,1018.2
2023-04-07T00:06:03.270Z,1018.2
2023-04-07T00:07:03.274Z,1018.2
2023-04-07T00:08:03.312Z,1018.2
2023-04-07T00:09:03.299Z,1018.2
2023-04-07T00:10:03.282Z,1018.2
2023-04-07T00:11:03.272Z,1018.2
2023-04-07T00:12:03.301Z,1018.2
2023-04-07T00:13:03.428Z,1018.2
2023-04-07T00:14:03.308Z,1018.1
2023-04-07T00:15:03.321Z,1018.1
2023-04-07T00:16:03.252Z,1018.1
2023-04-07T00:17:03.282Z,1018.1
2023-04-07T00:18:03.343Z,1018.0
2023-04-07T00:19:03.238Z,1018.1
2023-04-07T00:20:03.299Z,1018.1
2023-04-07T00:21:03.260Z,1018.1
2023-04-07T00:22:03.227Z,1018.0
2023-04-07T00:23:03.357Z,1018.0
2023-04-07T00:24:03.323Z,1018.1
2023-04-07T00:25:03.321Z,1018.1
2023-04-07T00:26:03.217Z,1018.1
2023-04-07T00:27:03.254Z,1018.0
2023-04-07T00:28:03.304Z,1018.0
2023-04-07T00:29:03.229Z,1018.0
2023-04-07T00:30:03.258Z,1018.0
2023-04-07T00:31:03.220Z,1018.0
2023-04-07T00:32:03.228Z,1018.0
2023-04-07T00:33:03.329Z,1018.0
2023-04-07T00:34:03.229Z,1018.0
2023-04-07T00:35:03.534Z,1017.9
2023-04-07T00:36:03.293Z,1017.9
2023-04-07T00:37:03.231Z,1018.0
2023-04-07T00:38:03.517Z,1017.9
2023-04-07T00:39:03.177Z,1017.8
2023-04-07T00:40:03.236Z,1017.9
2023-04-07T00:41:03.272Z,1017.9
2023-04-07T00:42:03.198Z,1017.8
2023-04-07T00:43:03.349Z,1017.8
2023-04-07T00:44:03.286Z,1017.8
2023-04-07T00:45:03.235Z,1017.8
2023-04-07T00:46:03.425Z,1017.9
2023-04-07T00:47:03.228Z,1017.9
2023-04-07T00:48:03.308Z,1017.9
2023-04-07T00:49:03.214Z,1017.9
2023-04-07T00:50:03.294Z,1017.8
2023-04-07T00:51:03.173Z,1017.9
2023-04-07T00:52:03.177Z,1017.8
2023-04-07T00:53:03.223Z,1017.8
2023-04-07T00:54:03.153Z,1017.8
2023-04-07T00:55:03.251Z,1017.8
2023-04-07T00:56:03.189Z,1017.8
2023-04-07T00:57:03.329Z,1017.8
2023-04-07T00:58:03.216Z,1017.8
2023-04-07T00:59:03.335Z,1017.9
2023-04-07T01:00:03.237Z,1017.9
2023-04-07T01:01:03.217Z,1017.8
2023-04-07T01:02:03.414Z,1017.8
2023-04-07T01:03:03.570Z,1017.8
2023-04-07T01:04:03.207Z,1017.7
2023-04-07T01:05:04.116Z,1017.8
2023-04-07T01:06:03.154Z,1017.9
2023-04-07T01:07:03.138Z,1017.8
2023-04-07T01:08:03.358Z,1017.7
2023-04-07T01:09:03.182Z,1017.8
2023-04-07T01:10:03.311Z,1017.7
2023-04-07T01:11:03.147Z,1017.8
2023-04-07T01:12:03.162Z,1017.7
2023-04-07T01:13:03.229Z,1017.7
2023-04-07T01:14:03.150Z,1017.7
2023-04-07T01:15:03.147Z,1017.8
2023-04-07T01:16:03.191Z,1017.8
2023-04-07T01:17:03.167Z,1017.7
2023-04-07T01:18:03.225Z,1017.8
2023-04-07T01:19:03.100Z,1017.7
2023-04-07T01:20:03.296Z,1017.8
2023-04-07T01:21:03.125Z,1017.7
2023-04-07T01:22:03.151Z,1017.7
2023-04-07T01:23:03.146Z,1017.7
2023-04-07T01:24:03.082Z,1017.7
2023-04-07T01:25:03.169Z,1017.7
2023-04-07T01:26:03.204Z,1017.8
2023-04-07T01:27:03.087Z,1017.7
2023-04-07T01:28:03.158Z,1017.8
2023-04-07T01:29:03.111Z,1017.7
2023-04-07T01:30:03.402Z,1017.7
2023-04-07T01:31:03.101Z,1017.7
2023-04-07T01:32:03.196Z,1017.7
2023-04-07T01:33:03.280Z,1017.6
2023-04-07T01:34:03.121Z,1017.6
2023-04-07T01:35:03.156Z,1017.6
2023-04-07T01:36:03.151Z,1017.7
2023-04-07T01:37:03.145Z,1017.6
2023-04-07T01:38:03.199Z,1017.6
2023-04-07T01:39:03.091Z,1017.6
2023-04-07T01:40:03.110Z,1017.6
2023-04-07T01:41:03.419Z,1017.5
2023-04-07T01:42:03.074Z,1017.6
2023-04-07T01:43:03.168Z,1017.6
2023-04-07T01:44:03.114Z,1017.6
2023-04-07T01:45:03.144Z,1017.7
2023-04-07T01:46:03.123Z,1017.7
2023-04-07T01:47:03.093Z,1017.5
2023-04-07T01:48:03.181Z,1017.5
2023-04-07T01:49:03.122Z,1017.6
2023-04-07T01:50:03.297Z,1017.5
2023-04-07T01:51:03.064Z,1017.6
2023-04-07T01:52:03.201Z,1017.5
2023-04-07T01:53:03.184Z,1017.4
2023-04-07T01:54:03.109Z,1017.4
2023-04-07T01:55:03.120Z,1017.4
2023-04-07T01:56:03.604Z,1017.4
2023-04-07T01:57:03.093Z,1017.5
2023-04-07T01:58:03.039Z,1017.4
2023-04-07T01:59:03.089Z,1017.4
2023-04-07T02:00:03.041Z,1017.5
2023-04-07T02:01:03.109Z,1017.5
2023-04-07T02:02:03.137Z,1017.5
2023-04-07T02:03:03.215Z,1017.5
2023-04-07T02:04:03.178Z,1017.5
2023-04-07T02:05:03.047Z,1017.6
2023-04-07T02:06:03.119Z,1017.5
2023-04-07T02:07:03.038Z,1017.6
2023-04-07T02:08:03.110Z,1017.5
2023-04-07T02:09:03.118Z,1017.5
2023-04-07T02:10:03.049Z,1017.5
2023-04-07T02:11:03.037Z,1017.4
2023-04-07T02:12:03.251Z,1017.4
2023-04-07T02:13:03.050Z,1017.5
2023-04-07T02:14:02.998Z,1017.5
2023-04-07T02:15:03.096Z,1017.5
2023-04-07T02:16:03.110Z,1017.6
2023-04-07T02:17:03.096Z,1017.5
2023-04-07T02:18:03.068Z,1017.6
2023-04-07T02:19:03.091Z,1017.5
2023-04-07T02:20:03.021Z,1017.6
2023-04-07T02:21:03.063Z,1017.5
2023-04-07T02:22:03.093Z,1017.6
2023-04-07T02:23:02.998Z,1017.5
2023-04-07T02:24:03.134Z,1017.6
2023-04-07T02:25:03.301Z,1017.5
2023-04-07T02:26:03.025Z,1017.5
2023-04-07T02:27:03.076Z,1017.5
2023-04-07T02:28:03.027Z,1017.4
2023-04-07T02:29:03.072Z,1017.5
2023-04-07T02:30:03.012Z,1017.5
2023-04-07T02:31:02.992Z,1017.5
2023-04-07T02:32:03.108Z,1017.4
2023-04-07T02:33:03.403Z,1017.5
2023-04-07T02:34:03.050Z,1017.4
2023-04-07T02:35:03.107Z,1017.5
2023-04-07T02:36:02.959Z,1017.5
2023-04-07T02:37:03.018Z,1017.4
2023-04-07T02:38:03.005Z,1017.5
2023-04-07T02:39:03.020Z,1017.5
2023-04-07T02:40:03.085Z,1017.5
2023-04-07T02:41:02.994Z,1017.5
2023-04-07T02:42:02.998Z,1017.5
2023-04-07T02:43:03.081Z,1017.5
2023-04-07T02:44:02.982Z,1017.4
2023-04-07T02:45:03.144Z,1017.5
2023-04-07T02:46:03.002Z,1017.4
2023-04-07T02:47:03.162Z,1017.5
2023-04-07T02:48:03.223Z,1017.4
2023-04-07T02:49:03.014Z,1017.5
2023-04-07T02:50:03.033Z,1017.4
2023-04-07T02:51:02.930Z,1017.5
2023-04-07T02:52:02.956Z,1017.4
2023-04-07T02:53:03.361Z,1017.4
2023-04-07T02:54:02.960Z,1017.4
2023-04-07T02:55:03.009Z,1017.4
2023-04-07T02:56:03.021Z,1017.3
2023-04-07T02:57:02.967Z,1017.4
2023-04-07T02:58:03.007Z,1017.4
2023-04-07T02:59:03.079Z,1017.4
2023-04-07T03:00:02.972Z,1017.4
2023-04-07T03:01:02.942Z,1017.4
2023-04-07T03:02:03.288Z,1017.3
2023-04-07T03:03:03.114Z,1017.4
2023-04-07T03:04:03.178Z,1017.4
2023-04-07T03:05:02.955Z,1017.3
2023-04-07T03:06:02.964Z,1017.4
2023-04-07T03:07:02.903Z,1017.3
2023-04-07T03:08:02.939Z,1017.4
2023-04-07T03:09:03.203Z,1017.4
2023-04-07T03:10:03.170Z,1017.3
2023-04-07T03:11:02.954Z,1017.4
2023-04-07T03:12:02.887Z,1017.4
2023-04-07T03:13:03.022Z,1017.3
2023-04-07T03:14:03.091Z,1017.4
2023-04-07T03:15:02.997Z,1017.4
2023-04-07T03:16:02.958Z,1017.4
2023-04-07T03:17:02.966Z,1017.3
2023-04-07T03:18:02.976Z,1017.2
2023-04-07T03:19:02.964Z,1017.2
2023-04-07T03:20:03.220Z,1017.2
2023-04-07T03:21:02.932Z,1017.2
2023-04-07T03:22:03.106Z,1017.2
2023-04-07T03:23:02.910Z,1017.2
2023-04-07T03:24:02.974Z,1017.3
2023-04-07T03:25:02.998Z,1017.3
2023-04-07T03:26:02.981Z,1017.3
2023-04-07T03:27:02.906Z,1017.3
2023-04-07T03:28:02.884Z,1017.3
2023-04-07T03:29:02.905Z,1017.3
2023-04-07T03:30:02.965Z,1017.2
2023-04-07T03:31:03.171Z,1017.3
2023-04-07T03:32:02.878Z,1017.3
2023-04-07T03:33:03.010Z,1017.3
2023-04-07T03:34:02.841Z,1017.4
2023-04-07T03:35:02.945Z,1017.5
2023-04-07T03:36:02.968Z,1017.4
2023-04-07T03:37:02.898Z,1017.3
2023-04-07T03:38:02.988Z,1017.3
2023-04-07T03:39:02.924Z,1017.3
2023-04-07T03:40:03.043Z,1017.3
2023-04-07T03:41:02.918Z,1017.4
2023-04-07T03:42:03.061Z,1017.3
2023-04-07T03:43:02.884Z,1017.4
2023-04-07T03:44:02.957Z,1017.3
2023-04-07T03:45:03.042Z,1017.3
2023-04-07T03:46:03.232Z,1017.3
2023-04-07T03:47:02.848Z,1017.3
2023-04-07T03:48:02.875Z,1017.4
2023-04-07T03:49:02.925Z,1017.3
2023-04-07T03:50:02.896Z,1017.3
2023-04-07T03:51:02.942Z,1017.3
2023-04-07T03:52:02.881Z,1017.3
2023-04-07T03:53:03.096Z,1017.3
2023-04-07T03:54:02.901Z,1017.3
2023-04-07T03:55:03.076Z,1017.2
2023-04-07T03:56:02.829Z,1017.3
2023-04-07T03:57:02.850Z,1017.3
2023-04-07T03:58:02.937Z,1017.2
2023-04-07T03:59:02.841Z,1017.3
2023-04-07T04:00:02.932Z,1017.2
2023-04-07T04:01:02.849Z,1017.2
2023-04-07T04:02:02.877Z,1017.3
2023-04-07T04:03:02.934Z,1017.3
2023-04-07T04:04:03.190Z,1017.2
2023-04-07T04:05:02.946Z,1017.3
2023-04-07T04:06:02.786Z,1017.3
2023-04-07T04:07:02.829Z,1017.3
2023-04-07T04:08:02.835Z,1017.3
2023-04-07T04:09:02.846Z,1017.2
2023-04-07T04:10:02.808Z,1017.2
2023-04-07T04:11:02.827Z,1017.2
2023-04-07T04:12:02.821Z,1017.3
2023-04-07T04:13:02.839Z,1017.3
2023-04-07T04:14:02.949Z,1017.3
2023-04-07T04:15:03.147Z,1017.3
2023-04-07T04:16:02.838Z,1017.3
2023-04-07T04:17:05.512Z,1017.3
2023-04-07T04:18:02.878Z,1017.3
2023-04-07T04:19:02.803Z,1017.2
2023-04-07T04:20:02.902Z,1017.3
2023-04-07T04:21:02.782Z,1017.2
2023-04-07T04:22:02.753Z,1017.3
2023-04-07T04:23:02.817Z,1017.2
2023-04-07T04:24:02.797Z,1017.4
2023-04-07T04:25:02.875Z,1017.3
2023-04-07T04:26:02.873Z,1017.3
2023-04-07T04:27:02.766Z,1017.3
2023-04-07T04:28:02.800Z,1017.2
2023-04-07T04:29:02.815Z,1017.3
2023-04-07T04:30:02.804Z,1017.3
2023-04-07T04:31:02.832Z,1017.3
2023-04-07T04:32:02.752Z,1017.3
2023-04-07T04:33:02.873Z,1017.3
2023-04-07T04:34:02.779Z,1017.4
2023-04-07T04:35:02.753Z,1017.4
2023-04-07T04:36:02.825Z,1017.3
2023-04-07T04:37:02.969Z,1017.3
2023-04-07T04:38:02.761Z,1017.3
2023-04-07T04:39:02.770Z,1017.3
2023-04-07T04:40:02.755Z,1017.3
2023-04-07T04:41:02.822Z,1017.4
2023-04-07T04:42:02.731Z,1017.4
2023-04-07T04:43:02.792Z,1017.4
2023-04-07T04:44:02.781Z,1017.4
2023-04-07T04:45:02.758Z,1017.5
2023-04-07T04:46:02.731Z,1017.5
2023-04-07T04:47:02.791Z,1017.5
2023-04-07T04:48:02.991Z,1017.4
2023-04-07T04:49:02.783Z,1017.4
2023-04-07T04:50:02.801Z,1017.4
2023-04-07T04:51:02.750Z,1017.4
2023-04-07T04:52:02.750Z,1017.4
2023-04-07T04:53:02.764Z,1017.4
2023-04-07T04:54:02.766Z,1017.4
2023-04-07T04:55:02.744Z,1017.4
2023-04-07T04:56:02.730Z,1017.4
2023-04-07T04:57:02.724Z,1017.4
2023-04-07T04:58:02.762Z,1017.5
2023-04-07T04:59:02.667Z,1017.5
2023-04-07T05:00:02.749Z,1017.6
2023-04-07T05:01:02.765Z,1017.5
2023-04-07T05:02:02.861Z,1017.5
2023-04-07T05:03:02.942Z,1017.5
2023-04-07T05:04:03.040Z,1017.5
2023-04-07T05:05:02.962Z,1017.5
2023-04-07T05:06:02.878Z,1017.5
2023-04-07T05:07:02.905Z,1017.4
2023-04-07T05:08:02.708Z,1017.4
2023-04-07T05:09:02.724Z,1017.4
2023-04-07T05:10:02.914Z,1017.5
2023-04-07T05:11:02.724Z,1017.5
2023-04-07T05:12:02.674Z,1017.4
2023-04-07T05:13:02.709Z,1017.5
2023-04-07T05:14:03.636Z,1017.5
2023-04-07T05:15:02.752Z,1017.5
2023-04-07T05:16:02.766Z,1017.5
2023-04-07T05:17:02.690Z,1017.5
2023-04-07T05:18:02.725Z,1017.5
2023-04-07T05:19:02.733Z,1017.6
2023-04-07T05:20:02.693Z,1017.5
2023-04-07T05:21:02.726Z,1017.5
2023-04-07T05:22:02.692Z,1017.5
2023-04-07T05:23:02.704Z,1017.6
2023-04-07T05:24:02.662Z,1017.5
2023-04-07T05:25:02.820Z,1017.6
2023-04-07T05:26:02.671Z,1017.5
2023-04-07T05:27:02.870Z,1017.5
2023-04-07T05:28:02.766Z,1017.5
2023-04-07T05:29:02.711Z,1017.5
2023-04-07T05:30:02.727Z,1017.4
2023-04-07T05:31:02.638Z,1017.4
2023-04-07T05:32:02.728Z,1017.4
2023-04-07T05:33:02.769Z,1017.4
2023-04-07T05:34:02.706Z,1017.4
2023-04-07T05:35:02.691Z,1017.4
2023-04-07T05:36:02.886Z,1017.4
2023-04-07T05:37:02.652Z,1017.4
2023-04-07T05:38:02.636Z,1017.3
2023-04-07T05:39:02.699Z,1017.3
2023-04-07T05:40:02.697Z,1017.3
2023-04-07T05:41:02.681Z,1017.3
2023-04-07T05:42:02.680Z,1017.4
2023-04-07T05:43:02.634Z,1017.3
2023-04-07T05:44:02.646Z,1017.4
2023-04-07T05:45:02.716Z,1017.5
2023-04-07T05:46:02.865Z,1017.5
2023-04-07T05:47:02.802Z,1017.5
2023-04-07T05:48:02.686Z,1017.5
2023-04-07T05:49:16.800Z,1017.6
2023-04-07T05:50:02.704Z,1017.5
2023-04-07T05:51:02.731Z,1017.6
2023-04-07T05:52:03.358Z,1017.6
2023-04-07T05:53:03.330Z,1017.6
2023-04-07T05:54:02.709Z,1017.7
2023-04-07T05:55:03.374Z,1017.6
2023-04-07T05:56:03.367Z,1017.7
2023-04-07T05:57:03.371Z,1017.6
2023-04-07T05:58:02.638Z,1017.7
2023-04-07T05:59:02.637Z,1017.7
2023-04-07T06:00:03.637Z,1017.6
2023-04-07T06:01:02.628Z,1017.7
2023-04-07T06:02:02.789Z,1017.7
2023-04-07T06:03:02.750Z,1017.7
2023-04-07T06:04:02.675Z,1017.7
2023-04-07T06:05:02.682Z,1017.7
2023-04-07T06:06:02.595Z,1017.7
2023-04-07T06:07:02.621Z,1017.7
2023-04-07T06:08:02.568Z,1017.6
2023-04-07T06:09:02.611Z,1017.7
2023-04-07T06:10:02.727Z,1017.6
2023-04-07T06:11:02.766Z,1017.6
2023-04-07T06:12:03.356Z,1017.6
2023-04-07T06:13:02.588Z,1017.6
2023-04-07T06:14:02.603Z,1017.6
2023-04-07T06:15:02.636Z,1017.6
2023-04-07T06:16:02.628Z,1017.5
2023-04-07T06:17:02.823Z,1017.6
2023-04-07T06:18:03.377Z,1017.6
2023-04-07T06:19:03.266Z,1017.5
2023-04-07T06:20:03.285Z,1017.5
2023-04-07T06:21:03.275Z,1017.6
2023-04-07T06:22:02.647Z,1017.5
2023-04-07T06:23:03.270Z,1017.5
2023-04-07T06:24:03.353Z,1017.6
2023-04-07T06:25:02.578Z,1017.5
2023-04-07T06:26:02.586Z,1017.5
2023-04-07T06:27:03.263Z,1017.5
2023-04-07T06:28:02.637Z,1017.5
2023-04-07T06:29:02.583Z,1017.5
2023-04-07T06:30:02.587Z,1017.4
2023-04-07T06:31:03.264Z,1017.5
2023-04-07T06:32:03.317Z,1017.4
2023-04-07T06:33:03.433Z,1017.4
2023-04-07T06:34:02.563Z,1017.5
2023-04-07T06:35:02.620Z,1017.5
2023-04-07T06:36:02.513Z,1017.5
2023-04-07T06:37:02.610Z,1017.5
2023-04-07T06:38:02.646Z,1017.5
2023-04-07T06:39:02.540Z,1017.5
2023-04-07T06:40:02.529Z,1017.5
2023-04-07T06:41:02.526Z,1017.4
2023-04-07T06:42:04.255Z,1017.4
2023-04-07T06:43:03.260Z,1017.3
2023-04-07T06:44:03.472Z,1017.4
2023-04-07T06:45:02.538Z,1017.4
2023-04-07T06:46:02.553Z,1017.3
2023-04-07T06:47:02.542Z,1017.3
2023-04-07T06:48:03.382Z,1017.4
2023-04-07T06:49:02.596Z,1017.4
2023-04-07T06:50:03.513Z,1017.3
2023-04-07T06:51:03.807Z,1017.4
2023-04-07T06:52:02.671Z,1017.3
2023-04-07T06:53:02.582Z,1017.4
2023-04-07T06:54:02.655Z,1017.3
2023-04-07T06:55:02.618Z,1017.4
2023-04-07T06:56:02.494Z,1017.4
2023-04-07T06:57:02.549Z,1017.4
2023-04-07T06:58:02.592Z,1017.4
2023-04-07T06:59:02.654Z,1017.4
2023-04-07T07:00:02.479Z,1017.4
2023-04-07T07:01:02.508Z,1017.4
2023-04-07T07:02:02.813Z,1017.4
2023-04-07T07:03:02.615Z,1017.4
2023-04-07T07:04:02.652Z,1017.4
2023-04-07T07:05:02.569Z,1017.4
2023-04-07T07:06:02.518Z,1017.4
2023-04-07T07:07:02.528Z,1017.3
2023-04-07T07:08:02.518Z,1017.3
2023-04-07T07:09:02.588Z,1017.4
2023-04-07T07:10:03.329Z,1017.3
2023-04-07T07:11:03.218Z,1017.4
2023-04-07T07:12:04.165Z,1017.4
2023-04-07T07:13:03.374Z,1017.4
2023-04-07T07:14:03.234Z,1017.5
2023-04-07T07:15:03.523Z,1017.5
2023-04-07T07:16:03.344Z,1017.5
2023-04-07T07:17:03.242Z,1017.4
2023-04-07T07:18:02.536Z,1017.6
2023-04-07T07:19:02.582Z,1017.6
2023-04-07T07:20:02.464Z,1017.5
2023-04-07T07:21:03.186Z,1017.6
2023-04-07T07:22:03.212Z,1017.5
2023-04-07T07:23:03.209Z,1017.7
2023-04-07T07:24:02.524Z,1017.6
2023-04-07T07:25:03.343Z,1017.7
2023-04-07T07:26:03.492Z,1017.7
2023-04-07T07:27:02.685Z,1017.6
2023-04-07T07:28:02.459Z,1017.7
2023-04-07T07:29:02.505Z,1017.7
2023-04-07T07:30:02.527Z,1017.7
2023-04-07T07:31:02.499Z,1017.6
2023-04-07T07:32:03.290Z,1017.6
2023-04-07T07:33:03.409Z,1017.7
2023-04-07T07:34:03.223Z,1017.7
2023-04-07T07:35:03.320Z,1017.7
2023-04-07T07:36:03.250Z,1017.8
2023-04-07T07:37:03.276Z,1017.8
2023-04-07T07:38:02.455Z,1017.8
2023-04-07T07:39:02.534Z,1017.8
2023-04-07T07:40:02.454Z,1017.8
2023-04-07T07:41:02.513Z,1017.8
2023-04-07T07:42:02.520Z,1017.9
2023-04-07T07:43:02.464Z,1017.8
2023-04-07T07:44:02.425Z,1017.8
2023-04-07T07:45:03.436Z,1017.7
2023-04-07T07:46:02.494Z,1017.7
2023-04-07T07:47:02.492Z,1017.8
2023-04-07T07:48:02.552Z,1017.9
2023-04-07T07:49:02.436Z,1017.8
2023-04-07T07:50:02.486Z,1017.8
2023-04-07T07:51:02.460Z,1017.8
2023-04-07T07:52:02.433Z,1017.9
2023-04-07T07:53:02.757Z,1017.8
2023-04-07T07:54:02.495Z,1017.8
2023-04-07T07:55:02.461Z,1017.7
2023-04-07T07:56:03.177Z,1017.9
2023-04-07T07:57:03.452Z,1017.8
2023-04-07T07:58:03.222Z,1017.7
2023-04-07T07:59:03.203Z,1017.7
2023-04-07T08:00:03.210Z,1017.7
2023-04-07T08:01:03.199Z,1017.6
2023-04-07T08:02:03.264Z,1017.6
2023-04-07T08:03:03.243Z,1017.7
2023-04-07T08:04:03.346Z,1017.7
2023-04-07T08:05:03.247Z,1017.7
2023-04-07T08:06:03.132Z,1017.7
2023-04-07T08:07:03.139Z,1017.6
2023-04-07T08:08:03.091Z,1017.7
2023-04-07T08:09:03.201Z,1017.8
2023-04-07T08:10:03.195Z,1017.7
2023-04-07T08:11:03.169Z,1017.8
2023-04-07T08:12:02.373Z,1017.8
2023-04-07T08:13:03.903Z,1017.8
2023-04-07T08:14:02.532Z,1017.7
2023-04-07T08:15:02.833Z,1017.7
2023-04-07T08:16:02.423Z,1017.7
2023-04-07T08:17:02.355Z,1017.7
2023-04-07T08:18:02.404Z,1017.7
2023-04-07T08:19:02.483Z,1017.7
2023-04-07T08:20:02.484Z,1017.6
2023-04-07T08:21:02.536Z,1017.7
2023-04-07T08:22:02.581Z,1017.7
2023-04-07T08:23:02.393Z,1017.7
2023-04-07T08:24:02.413Z,1017.7
2023-04-07T08:25:02.519Z,1017.6
2023-04-07T08:26:02.320Z,1017.7
2023-04-07T08:27:02.357Z,1017.8
2023-04-07T08:28:02.394Z,1017.7
2023-04-07T08:29:02.413Z,1017.6
2023-04-07T08:30:02.393Z,1017.7
2023-04-07T08:31:02.517Z,1017.7
2023-04-07T08:32:02.436Z,1017.7
2023-04-07T08:33:02.676Z,1017.7
2023-04-07T08:34:02.365Z,1017.7
2023-04-07T08:35:02.758Z,1017.7
2023-04-07T08:36:02.415Z,1017.7
2023-04-07T08:37:02.344Z,1017.6
2023-04-07T08:38:02.512Z,1017.6
2023-04-07T08:39:02.381Z,1017.6
2023-04-07T08:40:02.412Z,1017.6
2023-04-07T08:41:02.332Z,1017.7
2023-04-07T08:42:02.325Z,1017.6
2023-04-07T08:43:02.372Z,1017.6
2023-04-07T08:44:02.567Z,1017.7
2023-04-07T08:45:02.418Z,1017.7
2023-04-07T08:46:02.401Z,1017.7
2023-04-07T08:47:02.336Z,1017.8
2023-04-07T08:48:02.367Z,1017.8
2023-04-07T08:49:02.316Z,1017.7
2023-04-07T08:50:02.343Z,1017.7
2023-04-07T08:51:02.360Z,1017.8
2023-04-07T08:52:04.713Z,1017.7
2023-04-07T08:53:03.040Z,1017.7
2023-04-07T08:54:02.315Z,1017.7
2023-04-07T08:55:02.317Z,1017.7
2023-04-07T08:56:02.346Z,1017.7
2023-04-07T08:57:02.328Z,1017.7
2023-04-07T08:58:02.370Z,1017.7
2023-04-07T08:59:03.146Z,1017.8
2023-04-07T09:00:02.317Z,1017.8
2023-04-07T09:01:02.291Z,1017.8
2023-04-07T09:02:02.309Z,1017.8
2023-04-07T09:03:02.414Z,1017.8
2023-04-07T09:04:02.349Z,1017.8
2023-04-07T09:05:02.324Z,1017.8
2023-04-07T09:06:02.609Z,1017.8
2023-04-07T09:07:02.284Z,1017.7
2023-04-07T09:08:02.304Z,1017.7
2023-04-07T09:09:02.302Z,1017.8
2023-04-07T09:10:02.275Z,1017.7
2023-04-07T09:11:02.434Z,1017.7
2023-04-07T09:12:02.274Z,1017.7
2023-04-07T09:13:02.300Z,1017.7
2023-04-07T09:14:02.266Z,1017.7
2023-04-07T09:15:02.329Z,1017.6
2023-04-07T09:16:02.414Z,1017.6
2023-04-07T09:17:02.309Z,1017.6
2023-04-07T09:18:02.340Z,1017.6
2023-04-07T09:19:02.264Z,1017.5
2023-04-07T09:20:02.292Z,1017.6
2023-04-07T09:21:02.275Z,1017.6
2023-04-07T09:22:02.443Z,1017.5
2023-04-07T09:23:02.323Z,1017.6
2023-04-07T09:24:02.259Z,1017.6
2023-04-07T09:25:02.250Z,1017.5
2023-04-07T09:26:02.361Z,1017.5
2023-04-07T09:27:02.253Z,1017.6
2023-04-07T09:28:02.373Z,1017.5
2023-04-07T09:29:02.233Z,1017.6
2023-04-07T09:30:02.819Z,1017.5
2023-04-07T09:31:02.400Z,1017.6
2023-04-07T09:32:02.354Z,1017.5
2023-04-07T09:33:02.567Z,1017.5
2023-04-07T09:34:03.052Z,1017.6
2023-04-07T09:35:02.333Z,1017.5
2023-04-07T09:36:02.482Z,1017.5
2023-04-07T09:37:02.238Z,1017.5
2023-04-07T09:38:02.319Z,1017.5
2023-04-07T09:39:02.252Z,1017.5
2023-04-07T09:40:02.436Z,1017.5
2023-04-07T09:41:02.306Z,1017.4
2023-04-07T09:42:02.238Z,1017.5
2023-04-07T09:43:02.480Z,1017.5
2023-04-07T09:44:02.360Z,1017.5
2023-04-07T09:45:02.525Z,1017.5
2023-04-07T09:46:02.192Z,1017.5
2023-04-07T09:47:02.240Z,1017.4
2023-04-07T09:48:02.458Z,1017.4
2023-04-07T09:49:02.317Z,1017.5
2023-04-07T09:50:02.290Z,1017.5
2023-04-07T09:51:02.877Z,1017.4
2023-04-07T09:52:02.213Z,1017.5
2023-04-07T09:53:02.212Z,1017.5
2023-04-07T09:54:02.314Z,1017.5
2023-04-07T09:55:02.225Z,1017.4
2023-04-07T09:56:02.382Z,1017.4
2023-04-07T09:57:02.236Z,1017.4
2023-04-07T09:58:02.218Z,1017.5
2023-04-07T09:59:02.203Z,1017.4
2023-04-07T10:00:02.278Z,1017.5
2023-04-07T10:01:02.234Z,1017.5
2023-04-07T10:02:02.366Z,1017.5
2023-04-07T10:03:02.348Z,1017.4
2023-04-07T10:04:02.395Z,1017.5
2023-04-07T10:05:02.195Z,1017.5
2023-04-07T10:06:02.270Z,1017.5
2023-04-07T10:07:02.497Z,1017.5
2023-04-07T10:08:02.221Z,1017.5
2023-04-07T10:09:02.180Z,1017.5
2023-04-07T10:10:02.293Z,1017.5
2023-04-07T10:11:02.224Z,1017.5
2023-04-07T10:12:03.158Z,1017.4
2023-04-07T10:13:02.191Z,1017.4
2023-04-07T10:14:02.176Z,1017.4
2023-04-07T10:15:02.269Z,1017.5
2023-04-07T10:16:02.214Z,1017.5
2023-04-07T10:17:02.185Z,1017.5
2023-04-07T10:18:02.224Z,1017.6
2023-04-07T10:19:02.947Z,1017.6
2023-04-07T10:20:02.157Z,1017.5
2023-04-07T10:21:02.154Z,1017.5
2023-04-07T10:22:25.805Z,1017.6
2023-04-07T10:23:02.180Z,1017.5
2023-04-07T10:24:02.184Z,1017.5
2023-04-07T10:25:02.203Z,1017.6
2023-04-07T10:26:02.144Z,1017.5
2023-04-07T10:27:02.861Z,1017.6
2023-04-07T10:28:02.805Z,1017.5
2023-04-07T10:29:02.174Z,1017.5
2023-04-07T10:30:03.160Z,1017.6
2023-04-07T10:31:03.141Z,1017.5
2023-04-07T10:32:02.180Z,1017.5
2023-04-07T10:33:02.375Z,1017.6
2023-04-07T10:34:02.147Z,1017.6
2023-04-07T10:35:02.114Z,1017.5
2023-04-07T10:36:03.024Z,1017.5
2023-04-07T10:37:02.863Z,1017.6
2023-04-07T10:38:02.969Z,1017.6
2023-04-07T10:39:02.898Z,1017.5
2023-04-07T10:40:02.931Z,1017.5
2023-04-07T10:41:03.077Z,1017.4
2023-04-07T10:42:05.080Z,1017.5
2023-04-07T10:43:02.095Z,1017.5
2023-04-07T10:44:02.131Z,1017.5
2023-04-07T10:45:03.036Z,1017.5
2023-04-07T10:46:03.003Z,1017.5
2023-04-07T10:47:02.895Z,1017.5
2023-04-07T10:48:02.942Z,1017.6
2023-04-07T10:49:02.968Z,1017.5
2023-04-07T10:50:03.090Z,1017.5
2023-04-07T10:51:02.102Z,1017.4
2023-04-07T10:52:02.143Z,1017.4
2023-04-07T10:53:02.107Z,1017.3
2023-04-07T10:54:02.166Z,1017.5
2023-04-07T10:55:02.120Z,1017.4
2023-04-07T10:56:02.144Z,1017.5
2023-04-07T10:57:02.084Z,1017.5
2023-04-07T10:58:02.079Z,1017.5
2023-04-07T10:59:02.221Z,1017.5
2023-04-07T11:00:02.121Z,1017.5
2023-04-07T11:01:02.452Z,1017.5
2023-04-07T11:02:02.268Z,1017.4
2023-04-07T11:03:02.300Z,1017.5
2023-04-07T11:04:02.351Z,1017.5
2023-04-07T11:05:02.379Z,1017.5
2023-04-07T11:06:02.157Z,1017.5
2023-04-07T11:07:02.076Z,1017.5
2023-04-07T11:08:02.067Z,1017.4
2023-04-07T11:09:02.119Z,1017.4
2023-04-07T11:10:02.180Z,1017.5
2023-04-07T11:11:02.101Z,1017.4
2023-04-07T11:12:02.023Z,1017.5
2023-04-07T11:13:02.071Z,1017.4
2023-04-07T11:14:02.150Z,1017.5
2023-04-07T11:15:02.092Z,1017.3
2023-04-07T11:16:02.108Z,1017.3
2023-04-07T11:17:02.035Z,1017.4
2023-04-07T11:18:02.057Z,1017.3
2023-04-07T11:19:02.104Z,1017.3
2023-04-07T11:20:04.507Z,1017.3
2023-04-07T11:21:02.063Z,1017.4
2023-04-07T11:22:02.075Z,1017.4
2023-04-07T11:23:02.147Z,1017.4
2023-04-07T11:24:02.061Z,1017.3
2023-04-07T11:25:02.097Z,1017.4
2023-04-07T11:26:02.049Z,1017.4
2023-04-07T11:27:03.076Z,1017.3
2023-04-07T11:28:02.778Z,1017.4
2023-04-07T11:29:02.879Z,1017.4
2023-04-07T11:30:02.970Z,1017.3
2023-04-07T11:31:02.016Z,1017.4
2023-04-07T11:32:02.762Z,1017.4
2023-04-07T11:33:02.872Z,1017.4
2023-04-07T11:34:02.068Z,1017.4
2023-04-07T11:35:02.030Z,1017.3
2023-04-07T11:36:02.129Z,1017.4
2023-04-07T11:37:02.018Z,1017.3
2023-04-07T11:38:02.070Z,1017.3
2023-04-07T11:39:02.970Z,1017.3
2023-04-07T11:40:02.463Z,1017.4
2023-04-07T11:41:02.745Z,1017.4
2023-04-07T11:42:02.113Z,1017.4
2023-04-07T11:43:02.086Z,1017.3
2023-04-07T11:44:02.854Z,1017.3
2023-04-07T11:45:03.280Z,1017.4
2023-04-07T11:46:02.737Z,1017.3
2023-04-07T11:47:02.793Z,1017.3
2023-04-07T11:48:02.775Z,1017.4
2023-04-07T11:49:02.739Z,1017.4
2023-04-07T11:50:02.702Z,1017.5
2023-04-07T11:51:02.736Z,1017.4
2023-04-07T11:52:03.173Z,1017.5
2023-04-07T11:53:02.903Z,1017.5
2023-04-07T11:54:02.700Z,1017.6
2023-04-07T11:55:02.725Z,1017.6
2023-04-07T11:56:02.716Z,1017.5
2023-04-07T11:57:02.732Z,1017.5
2023-04-07T11:58:01.986Z,1017.6
2023-04-07T11:59:02.104Z,1017.6
2023-04-07T12:00:02.676Z,1017.6
2023-04-07T12:02:02.289Z,1017.5
2023-04-07T12:03:02.786Z,1017.5
2023-04-07T12:04:02.671Z,1017.4
2023-04-07T12:05:05.299Z,1017.4
2023-04-07T12:06:02.689Z,1017.5
2023-04-07T12:07:01.969Z,1017.4
2023-04-07T12:08:01.968Z,1017.3
2023-04-07T12:09:14.635Z,1017.3
2023-04-07T12:10:02.022Z,1017.4
2023-04-07T12:11:01.912Z,1017.4
2023-04-07T12:12:01.997Z,1017.4
2023-04-07T12:13:02.036Z,1017.3
2023-04-07T12:14:01.980Z,1017.4
2023-04-07T12:15:02.679Z,1017.4
2023-04-07T12:16:02.714Z,1017.4
2023-04-07T12:17:02.722Z,1017.4
2023-04-07T12:18:02.682Z,1017.4
2023-04-07T12:19:02.731Z,1017.4
2023-04-07T12:20:05.283Z,1017.4
2023-04-07T12:21:02.685Z,1017.4
2023-04-07T12:22:02.714Z,1017.4
2023-04-07T12:23:02.684Z,1017.4
2023-04-07T12:24:02.777Z,1017.4
2023-04-07T12:25:02.749Z,1017.4
2023-04-07T12:26:02.722Z,1017.3
2023-04-07T12:27:02.629Z,1017.4
2023-04-07T12:28:02.661Z,1017.3
2023-04-07T12:29:02.766Z,1017.4